Time;durP1;ratioP1;P1;durP2;ratioP2;P2;SDS_P1;SDS_P2;PMS_P1;PMS_P2;Temp;Humidity;BMP_temperature;BMP_pressure;BME280_temperature;BME280_humidity;BME280_pressure;Samples;Min_cycle;Max_cycle;Signal;HPM_P1;HPM_P2
2022/04/18 00:01:16;;;;;;;4.25;2.33;;;7.90;43.00;;;;;;5058021;28;20051;-79
2022/04/18 00:03:42;;;;;;;5.20;2.47;;;7.90;42.70;;;;;;5063697;28;20077;-76
2022/04/18 00:06:07;;;;;;;4.18;2.67;;;7.90;43.00;;;;;;5060095;28;20048;-75
2022/04/18 00:08:34;;;;;;;3.85;2.58;;;7.90;43.10;;;;;;5058693;28;20025;-77
2022/04/18 00:11:00;;;;;;;3.97;2.30;;;7.90;42.80;;;;;;5056532;28;20025;-76
2022/04/18 00:13:26;;;;;;;3.80;2.35;;;7.90;42.50;;;;;;5056458;28;20115;-77
2022/04/18 00:15:51;;;;;;;3.75;2.15;;;8.00;42.40;;;;;;5037734;28;20071;-77
2022/04/18 00:18:17;;;;;;;2.88;2.08;;;8.00;42.60;;;;;;5053912;28;20032;-78
2022/04/18 00:20:42;;;;;;;2.95;1.88;;;8.00;43.10;;;;;;5074361;28;20039;-79
2022/04/18 00:23:08;;;;;;;2.50;1.77;;;8.00;43.40;;;;;;5076858;28;20024;-77
2022/04/18 00:25:34;;;;;;;3.88;2.15;;;8.00;43.60;;;;;;5076687;28;20057;-80
2022/04/18 00:28:00;;;;;;;6.22;2.63;;;7.90;43.80;;;;;;5075864;28;20036;-80
2022/04/18 00:30:26;;;;;;;4.80;2.25;;;7.90;43.90;;;;;;5068683;28;20025;-79
2022/04/18 00:32:51;;;;;;;3.45;1.88;;;7.70;43.40;;;;;;5068148;28;20045;-80
2022/04/18 00:35:17;;;;;;;3.40;2.10;;;7.70;43.90;;;;;;5066270;28;20052;-79
2022/04/18 00:37:44;;;;;;;3.55;2.30;;;7.80;44.20;;;;;;5064981;28;20025;-79
2022/04/18 00:40:11;;;;;;;3.13;1.88;;;7.80;44.10;;;;;;5063038;28;20032;-79
2022/04/18 00:42:37;;;;;;;4.65;2.47;;;7.80;44.40;;;;;;5063444;28;20452;-79
2022/04/18 00:45:03;;;;;;;2.70;1.95;;;7.80;44.30;;;;;;5065132;28;20056;-79
2022/04/18 00:47:28;;;;;;;5.28;2.53;;;7.80;44.50;;;;;;5065712;28;20060;-80
2022/04/18 00:49:54;;;;;;;3.05;2.08;;;7.70;44.70;;;;;;5059680;28;20036;-79
2022/04/18 00:52:20;;;;;;;2.10;1.85;;;7.70;44.90;;;;;;5056791;28;20040;-80
2022/04/18 00:54:47;;;;;;;3.63;2.40;;;7.70;44.50;;;;;;5056079;28;20463;-80
2022/04/18 00:57:13;;;;;;;4.00;2.28;;;7.70;44.60;;;;;;5054834;28;20479;-79
2022/04/18 00:59:38;;;;;;;4.45;2.05;;;7.80;44.90;;;;;;5055233;28;20029;-79
2022/04/18 01:02:05;;;;;;;4.35;2.22;;;7.60;45.00;;;;;;5056260;28;20091;-80
2022/04/18 01:04:32;;;;;;;3.30;2.17;;;7.60;45.00;;;;;;5054195;28;20056;-79
2022/04/18 01:06:59;;;;;;;4.72;2.22;;;7.60;45.00;;;;;;5055522;28;20045;-80
2022/04/18 01:09:24;;;;;;;3.50;1.90;;;7.60;45.10;;;;;;5055913;28;20075;-79
2022/04/18 01:11:50;;;;;;;3.40;1.92;;;7.60;45.20;;;;;;5054367;28;20053;-80
2022/04/18 01:14:16;;;;;;;4.97;2.05;;;7.60;45.50;;;;;;5055684;28;20102;-80
2022/04/18 01:16:43;;;;;;;3.47;2.15;;;7.50;45.20;;;;;;5054295;28;20086;-80
2022/04/18 01:19:09;;;;;;;5.15;2.55;;;7.40;45.40;;;;;;5055547;28;20052;-80
2022/04/18 01:21:34;;;;;;;3.67;2.50;;;7.50;45.40;;;;;;5054241;28;20067;-78
2022/04/18 01:24:00;;;;;;;4.93;2.30;;;7.50;45.10;;;;;;5064203;28;20041;-77
2022/04/18 01:29:10;;;;;;;6.18;2.63;;;7.40;44.70;;;;;;5063124;28;20071;-78
2022/04/18 01:31:38;;;;;;;3.40;2.80;;;7.40;44.60;;;;;;5056311;28;20029;-78
2022/04/18 01:34:05;;;;;;;5.22;2.40;;;7.40;44.60;;;;;;5062946;28;20029;-80
2022/04/18 01:36:32;;;;;;;3.58;2.00;;;7.40;44.50;;;;;;5055423;28;20021;-79
2022/04/18 01:38:57;;;;;;;3.78;2.78;;;7.40;45.20;;;;;;5055086;28;20123;-80
2022/04/18 01:41:23;;;;;;;4.05;2.50;;;7.40;45.70;;;;;;5053934;28;20056;-80
2022/04/18 01:43:49;;;;;;;6.10;3.20;;;7.30;46.40;;;;;;5053545;28;20036;-78
2022/04/18 01:46:16;;;;;;;6.97;2.80;;;7.30;46.70;;;;;;5053725;28;20036;-79
2022/04/18 01:48:42;;;;;;;5.20;2.70;;;7.30;46.80;;;;;;5055283;28;20474;-79
2022/04/18 01:51:07;;;;;;;6.18;2.95;;;7.20;46.90;;;;;;5053306;28;20463;-79
2022/04/18 01:53:33;;;;;;;5.90;3.00;;;7.10;47.10;;;;;;5055236;28;20061;-80
2022/04/18 01:55:59;;;;;;;3.30;2.22;;;7.00;48.20;;;;;;5053723;28;20120;-79
2022/04/18 01:58:25;;;;;;;4.25;2.50;;;7.00;47.40;;;;;;5053641;28;20031;-78
2022/04/18 02:00:51;;;;;;;2.88;2.47;;;7.00;47.50;;;;;;5037562;28;20041;-77
2022/04/18 02:03:17;;;;;;;5.55;2.80;;;7.10;47.50;;;;;;5053220;28;20033;-78
2022/04/18 02:05:44;;;;;;;6.30;3.03;;;7.10;47.10;;;;;;5053222;28;20544;-78
2022/04/18 02:08:11;;;;;;;6.32;2.65;;;7.10;47.00;;;;;;5054661;28;20482;-79
2022/04/18 02:10:37;;;;;;;4.90;2.45;;;6.90;47.50;;;;;;5053004;28;20067;-79
2022/04/18 02:13:03;;;;;;;6.88;3.15;;;7.00;47.60;;;;;;5053075;28;20090;-79
2022/04/18 02:15:28;;;;;;;5.13;2.67;;;7.00;47.60;;;;;;5053018;28;20417;-79
2022/04/18 02:17:54;;;;;;;4.70;2.60;;;6.90;47.80;;;;;;5054553;28;20112;-80
2022/04/18 02:20:19;;;;;;;4.40;2.53;;;6.80;47.90;;;;;;5054182;28;20482;-79
2022/04/18 02:22:46;;;;;;;4.68;2.60;;;6.70;48.30;;;;;;5054315;28;20044;-79
2022/04/18 02:25:12;;;;;;;5.63;2.30;;;6.70;48.10;;;;;;5054532;28;20040;-79
2022/04/18 02:27:38;;;;;;;4.40;2.75;;;6.70;48.30;;;;;;5054261;28;20021;-79
2022/04/18 02:30:05;;;;;;;4.32;2.63;;;6.60;48.80;;;;;;5054079;28;20029;-80
2022/04/18 02:32:49;;;;;;;4.28;2.60;;;6.50;49.40;;;;;;5052944;28;20029;-78
2022/04/18 02:35:22;;;;;;;4.65;2.75;;;6.50;49.30;;;;;;5052994;28;20028;-79
2022/04/18 02:37:49;;;;;;;8.35;2.75;;;6.50;49.50;;;;;;5052895;28;20033;-79
2022/04/18 02:40:19;;;;;;;3.67;2.80;;;6.40;49.80;;;;;;5036204;28;20036;-79
2022/04/18 02:42:44;;;;;;;6.80;2.85;;;6.50;49.80;;;;;;5052624;28;20017;-79
2022/04/18 02:45:18;;;;;;;6.07;3.33;;;6.40;49.60;;;;;;5052753;28;20029;-78
2022/04/18 02:47:44;;;;;;;4.35;2.72;;;6.50;49.70;;;;;;5053397;28;20021;-79
2022/04/18 02:50:12;;;;;;;9.95;3.97;;;6.40;50.00;;;;;;5051867;28;20064;-80
2022/04/18 02:52:37;;;;;;;6.88;2.95;;;6.30;50.30;;;;;;5052653;28;20471;-79
2022/04/18 02:55:04;;;;;;;5.55;2.60;;;6.10;50.60;;;;;;5052401;28;20028;-79
2022/04/18 02:57:30;;;;;;;5.65;3.10;;;6.20;50.60;;;;;;5052563;28;20504;-79
2022/04/18 02:59:55;;;;;;;9.15;3.58;;;6.10;50.90;;;;;;5052242;28;20033;-78
2022/04/18 03:02:21;;;;;;;6.95;3.08;;;6.10;51.40;;;;;;5053362;28;20021;-78
2022/04/18 03:04:47;;;;;;;5.05;2.83;;;6.10;51.60;;;;;;5052183;28;20047;-79
2022/04/18 03:07:12;;;;;;;5.32;2.95;;;6.10;51.70;;;;;;5052337;28;20037;-79
2022/04/18 03:09:38;;;;;;;7.28;3.55;;;6.00;52.20;;;;;;5053460;28;20029;-81
2022/04/18 03:12:06;;;;;;;7.53;3.65;;;5.80;52.80;;;;;;5052127;28;20052;-80
2022/04/18 03:14:32;;;;;;;5.72;3.38;;;5.80;52.70;;;;;;5052292;28;20025;-80
2022/04/18 03:16:58;;;;;;;4.97;3.10;;;5.80;53.10;;;;;;5053451;28;20029;-80
2022/04/18 03:19:25;;;;;;;3.28;2.53;;;5.80;53.10;;;;;;5053601;28;20013;-79
2022/04/18 03:21:51;;;;;;;7.90;3.42;;;5.70;53.00;;;;;;5051864;28;20075;-78
2022/04/18 03:24:17;;;;;;;6.72;3.30;;;5.70;53.00;;;;;;5053325;28;20105;-78
2022/04/18 03:26:43;;;;;;;6.50;3.15;;;5.70;53.20;;;;;;5053319;28;20481;-79
2022/04/18 03:29:11;;;;;;;5.40;2.90;;;5.70;53.20;;;;;;5051818;28;20058;-78
2022/04/18 03:31:36;;;;;;;6.13;2.92;;;5.80;53.10;;;;;;5052114;28;20025;-77
2022/04/18 03:34:03;;;;;;;4.15;2.35;;;5.80;53.20;;;;;;5051717;28;20036;-77
2022/04/18 03:41:58;;;;;;;5.60;2.63;;;5.70;53.20;;;;;;5053405;28;20032;-78
2022/04/18 03:44:24;;;;;;;5.28;2.78;;;5.60;53.70;;;;;;5051363;28;20053;-78
2022/04/18 03:46:50;;;;;;;6.35;2.80;;;5.60;53.90;;;;;;5052778;28;20486;-77
2022/04/18 03:49:15;;;;;;;5.38;2.58;;;5.60;54.00;;;;;;5051792;28;20139;-78
2022/04/18 03:51:41;;;;;;;7.25;2.97;;;5.50;54.10;;;;;;5053729;28;20028;-78
2022/04/18 03:54:06;;;;;;;6.22;2.90;;;5.50;54.20;;;;;;5052971;28;20482;-77
2022/04/18 03:56:33;;;;;;;9.93;3.63;;;5.50;54.10;;;;;;5057824;28;20490;-77
2022/04/18 03:58:59;;;;;;;4.03;2.38;;;5.40;54.20;;;;;;5036786;28;20029;-77
2022/04/18 04:01:26;;;;;;;4.28;3.00;;;5.40;54.20;;;;;;5035737;28;20029;-78
2022/04/18 04:03:51;;;;;;;5.60;2.78;;;5.30;55.00;;;;;;5055226;28;20490;-77
2022/04/18 04:06:18;;;;;;;7.38;3.08;;;5.20;54.80;;;;;;5054634;28;20052;-77
2022/04/18 04:08:43;;;;;;;5.15;3.33;;;5.20;55.10;;;;;;5054470;28;20029;-77
2022/04/18 04:11:10;;;;;;;4.07;2.50;;;5.20;55.10;;;;;;5053766;28;20099;-79
2022/04/18 04:13:35;;;;;;;6.57;3.17;;;5.10;55.40;;;;;;5053790;28;20052;-78
2022/04/18 04:16:01;;;;;;;4.28;2.80;;;5.20;55.40;;;;;;5055174;28;20057;-78
2022/04/18 04:18:26;;;;;;;4.63;2.53;;;5.10;55.50;;;;;;5055406;28;20025;-80
2022/04/18 04:20:54;;;;;;;8.75;3.55;;;5.00;55.70;;;;;;5055192;28;20060;-76
2022/04/18 04:23:20;;;;;;;3.67;2.67;;;4.90;56.20;;;;;;5053615;28;20055;-76
2022/04/18 04:25:46;;;;;;;4.57;2.85;;;4.90;56.20;;;;;;5053200;28;20486;-76
2022/04/18 04:28:11;;;;;;;4.53;2.72;;;4.90;56.40;;;;;;5037081;28;20064;-77
2022/04/18 04:30:37;;;;;;;5.47;2.42;;;4.90;56.60;;;;;;5054990;28;20087;-76
2022/04/18 04:33:03;;;;;;;8.15;2.90;;;4.90;56.60;;;;;;5053769;28;20470;-76
2022/04/18 04:35:28;;;;;;;5.65;3.25;;;4.80;56.60;;;;;;5037453;28;20112;-76
2022/04/18 04:37:54;;;;;;;8.95;3.55;;;4.80;56.60;;;;;;5055158;28;20021;-76
2022/04/18 04:40:19;;;;;;;7.05;3.05;;;4.80;56.90;;;;;;5053474;28;20025;-76
2022/04/18 04:42:46;;;;;;;4.43;2.80;;;4.70;57.10;;;;;;5063724;28;20025;-76
2022/04/18 04:45:12;;;;;;;6.10;3.05;;;4.70;57.10;;;;;;5073191;28;20040;-75
2022/04/18 04:47:40;;;;;;;6.53;2.80;;;4.60;57.20;;;;;;5066418;28;20025;-76
2022/04/18 04:50:07;;;;;;;5.78;3.40;;;4.70;57.40;;;;;;5071921;28;20029;-77
2022/04/18 04:52:32;;;;;;;8.93;4.32;;;4.70;57.40;;;;;;5061627;28;20017;-77
2022/04/18 04:54:58;;;;;;;6.25;3.50;;;4.70;57.60;;;;;;5037143;28;20036;-76
2022/04/18 04:57:32;;;;;;;7.93;3.13;;;4.70;57.60;;;;;;5053322;28;20024;-76
2022/04/18 04:59:58;;;;;;;5.43;2.65;;;4.70;57.40;;;;;;5053761;28;20052;-78
2022/04/18 05:02:24;;;;;;;4.82;2.88;;;4.70;57.60;;;;;;5053189;28;20021;-77
2022/04/18 05:04:51;;;;;;;4.70;3.17;;;4.70;57.70;;;;;;5053083;28;20145;-78
2022/04/18 05:07:18;;;;;;;3.92;2.53;;;4.70;57.50;;;;;;5028916;28;365219;-79
2022/04/18 05:09:44;;;;;;;4.85;2.78;;;4.80;57.30;;;;;;5053524;28;20141;-77
2022/04/18 05:12:09;;;;;;;7.13;2.97;;;4.90;57.20;;;;;;5054354;28;20602;-78
2022/04/18 05:14:37;;;;;;;4.80;2.72;;;4.90;57.10;;;;;;5055187;28;20036;-79
2022/04/18 05:17:03;;;;;;;5.10;3.00;;;4.90;56.90;;;;;;5054092;28;20040;-78
2022/04/18 05:19:28;;;;;;;8.95;3.58;;;5.00;56.90;;;;;;5054382;28;20017;-77
2022/04/18 05:21:54;;;;;;;6.22;3.33;;;5.10;56.80;;;;;;5053819;28;20547;-77
2022/04/18 05:24:19;;;;;;;6.07;2.97;;;5.00;56.70;;;;;;5054993;28;20041;-78
2022/04/18 05:26:46;;;;;;;6.18;3.53;;;4.90;57.10;;;;;;5054191;28;20116;-78
2022/04/18 05:29:12;;;;;;;5.28;3.17;;;5.00;57.10;;;;;;5054025;28;20049;-78
2022/04/18 05:31:39;;;;;;;4.05;2.75;;;5.00;56.90;;;;;;5054924;28;20453;-78
2022/04/18 05:34:04;;;;;;;3.80;2.53;;;5.10;56.70;;;;;;5052907;28;20059;-78
2022/04/18 05:36:31;;;;;;;5.68;3.65;;;5.20;56.30;;;;;;5037618;28;20033;-78
2022/04/18 05:38:57;;;;;;;8.02;3.10;;;5.30;56.30;;;;;;5055081;28;20029;-77
2022/04/18 05:41:23;;;;;;;6.85;3.88;;;5.30;55.90;;;;;;5054328;28;20082;-77
2022/04/18 05:43:49;;;;;;;5.63;3.42;;;5.40;55.40;;;;;;5054875;28;20532;-77
2022/04/18 05:46:16;;;;;;;4.75;2.90;;;5.40;55.20;;;;;;5054996;28;20021;-78
2022/04/18 05:48:43;;;;;;;6.63;3.38;;;5.60;55.20;;;;;;5053452;28;20032;-77
2022/04/18 05:51:08;;;;;;;8.35;3.90;;;5.70;54.80;;;;;;5052977;28;20020;-77
2022/04/18 05:53:34;;;;;;;6.45;4.00;;;5.70;54.40;;;;;;5053540;28;20025;-77
2022/04/18 05:56:01;;;;;;;6.97;4.25;;;5.70;54.70;;;;;;5053327;28;20390;-76
2022/04/18 05:58:27;;;;;;;8.90;4.15;;;5.80;54.30;;;;;;5054631;28;20025;-78
2022/04/18 06:00:52;;;;;;;7.25;4.05;;;5.90;53.90;;;;;;5053182;28;20032;-78
2022/04/18 06:03:18;;;;;;;12.82;6.78;;;6.00;53.70;;;;;;5036926;28;20044;-77
2022/04/18 06:05:44;;;;;;;11.60;6.93;;;6.10;53.50;;;;;;5054153;28;20032;-79
2022/04/18 06:08:10;;;;;;;8.75;5.28;;;6.20;53.10;;;;;;5054126;28;20055;-78
2022/04/18 06:10:40;;;;;;;10.43;5.78;;;6.00;53.50;;;;;;5036391;28;20033;-77
2022/04/18 06:13:08;;;;;;;14.75;6.97;;;6.10;53.70;;;;;;5054405;28;20027;-78
2022/04/18 06:15:34;;;;;;;15.15;8.18;;;6.20;53.20;;;;;;5053078;28;20120;-77
2022/04/18 06:18:00;;;;;;;12.57;7.78;;;6.40;52.80;;;;;;5054650;28;20108;-77
2022/04/18 06:20:26;;;;;;;12.15;4.97;;;6.50;53.10;;;;;;5052728;28;20031;-77
2022/04/18 06:22:53;;;;;;;7.55;4.50;;;6.60;51.60;;;;;;5053013;28;20017;-77
2022/04/18 06:25:19;;;;;;;4.85;3.58;;;6.70;51.90;;;;;;5041882;28;20060;-76
2022/04/18 06:27:44;;;;;;;7.25;3.92;;;6.80;51.90;;;;;;5054679;28;20016;-76
2022/04/18 06:30:10;;;;;;;8.32;3.60;;;6.80;51.70;;;;;;5052392;28;20540;-77
2022/04/18 06:32:37;;;;;;;10.75;5.22;;;7.00;51.40;;;;;;5052691;28;20025;-77
2022/04/18 06:35:04;;;;;;;7.80;4.20;;;7.20;51.20;;;;;;5053549;28;20028;-77
2022/04/18 06:37:32;;;;;;;5.50;3.78;;;7.30;50.80;;;;;;5053790;28;20079;-77
2022/04/18 06:39:59;;;;;;;6.50;3.90;;;7.50;50.50;;;;;;5053812;28;20025;-77
2022/04/18 06:42:24;;;;;;;11.88;4.28;;;7.60;49.80;;;;;;5035625;28;20039;-77
2022/04/18 06:44:50;;;;;;;5.88;4.03;;;7.60;50.10;;;;;;5035106;28;20053;-76
2022/04/18 06:47:19;;;;;;;4.95;3.45;;;7.80;49.80;;;;;;5052052;28;20490;-76
2022/04/18 06:49:47;;;;;;;5.05;3.28;;;7.90;49.30;;;;;;5053675;28;20390;-77
2022/04/18 06:52:14;;;;;;;5.22;2.92;;;8.10;49.00;;;;;;5052444;28;20027;-76
2022/04/18 06:54:40;;;;;;;4.88;3.13;;;8.20;48.10;;;;;;5052095;28;20406;-76
2022/04/18 06:57:06;;;;;;;5.78;3.70;;;8.40;48.20;;;;;;5051982;28;20032;-77
2022/04/18 06:59:34;;;;;;;6.70;3.50;;;8.60;48.00;;;;;;5051761;28;20371;-77
2022/04/18 07:02:00;;;;;;;5.20;3.20;;;8.70;48.00;;;;;;5051987;28;20027;-78
2022/04/18 07:04:26;;;;;;;9.15;4.13;;;8.90;47.30;;;;;;5053179;28;20116;-77
2022/04/18 07:06:51;;;;;;;4.90;2.70;;;9.10;46.00;;;;;;5051649;28;20052;-77
2022/04/18 07:09:19;;;;;;;4.75;2.63;;;9.30;44.10;;;;;;5053274;28;20371;-77
2022/04/18 07:11:48;;;;;;;4.45;2.85;;;9.50;42.80;;;;;;5035577;28;20067;-77
2022/04/18 07:14:15;;;;;;;3.78;2.70;;;9.70;40.50;;;;;;5051735;28;20074;-78
2022/04/18 07:16:42;;;;;;;4.22;2.08;;;9.80;39.50;;;;;;5052002;28;20025;-78
2022/04/18 07:19:08;;;;;;;3.25;2.03;;;9.90;39.60;;;;;;5051962;28;20048;-75
2022/04/18 07:21:33;;;;;;;4.43;2.70;;;10.10;39.20;;;;;;5051954;28;20470;-76
2022/04/18 07:23:59;;;;;;;2.63;2.20;;;10.20;38.00;;;;;;5051335;28;20041;-76
2022/04/18 07:26:25;;;;;;;5.07;2.38;;;10.40;37.00;;;;;;5053024;28;20032;-75
2022/04/18 07:28:51;;;;;;;4.60;2.33;;;10.50;37.00;;;;;;5051440;28;20402;-74
2022/04/18 07:31:17;;;;;;;5.00;2.55;;;10.70;39.50;;;;;;5052832;28;20387;-77
2022/04/18 07:33:43;;;;;;;6.18;2.85;;;11.00;39.30;;;;;;5052608;28;20029;-73
2022/04/18 07:36:10;;;;;;;4.68;2.40;;;10.90;35.50;;;;;;5052705;28;20021;-74
2022/04/18 07:38:51;;;;;;;5.70;2.72;;;10.90;36.60;;;;;;5053359;28;20033;-73
2022/04/18 07:41:21;;;;;;;3.13;2.42;;;11.10;36.40;;;;;;5055424;28;20390;-73
2022/04/18 07:43:48;;;;;;;4.80;2.70;;;11.30;35.60;;;;;;5067730;28;20496;-75
2022/04/18 07:46:17;;;;;;;5.40;2.45;;;11.40;35.40;;;;;;5063822;28;20021;-76
2022/04/18 07:48:46;;;;;;;6.30;2.85;;;11.50;35.90;;;;;;5064635;28;20482;-76
2022/04/18 07:53:59;;;;;;;4.32;2.70;;;11.30;34.90;;;;;;5053999;28;20493;-79
2022/04/18 07:56:25;;;;;;;3.75;2.05;;;11.20;33.90;;;;;;5051563;28;20057;-79
2022/04/18 07:58:52;;;;;;;3.88;2.35;;;11.10;34.60;;;;;;5051170;28;20021;-79
2022/04/18 08:01:19;;;;;;;5.82;2.83;;;11.10;34.50;;;;;;5052952;28;20021;-80
2022/04/18 08:03:47;;;;;;;5.57;2.30;;;11.20;34.50;;;;;;5050959;28;20120;-79
2022/04/18 08:06:13;;;;;;;4.15;2.50;;;11.30;34.60;;;;;;5034624;28;20107;-79
2022/04/18 08:08:39;;;;;;;3.75;2.25;;;11.40;34.80;;;;;;5052443;28;20029;-79
2022/04/18 08:11:11;;;;;;;4.90;2.30;;;11.60;35.20;;;;;;5051659;28;20021;-79
2022/04/18 08:13:42;;;;;;;2.85;2.05;;;11.70;34.80;;;;;;5052810;28;20029;-80
2022/04/18 08:16:08;;;;;;;8.85;4.95;;;11.80;35.00;;;;;;5048332;28;20049;-78
2022/04/18 08:18:39;;;;;;;3.97;2.08;;;11.90;34.60;;;;;;5051078;28;20055;-78
2022/04/18 08:21:07;;;;;;;5.00;2.50;;;12.00;33.70;;;;;;5035819;28;20033;-79
2022/04/18 08:23:33;;;;;;;3.00;2.22;;;12.00;34.00;;;;;;5051172;28;20083;-78
2022/04/18 08:25:59;;;;;;;6.70;2.80;;;12.20;34.90;;;;;;5051175;28;20025;-79
2022/04/18 08:28:26;;;;;;;3.83;2.95;;;12.30;33.70;;;;;;5052379;28;20112;-79
2022/04/18 08:30:51;;;;;;;7.35;3.85;;;12.30;33.40;;;;;;5050794;28;20025;-79
2022/04/18 08:33:19;;;;;;;4.53;2.95;;;12.40;33.00;;;;;;5051162;28;20032;-80
2022/04/18 08:35:44;;;;;;;3.05;2.38;;;12.50;33.50;;;;;;5050990;28;20036;-79
2022/04/18 08:38:10;;;;;;;4.82;2.42;;;12.50;31.90;;;;;;5051210;28;20107;-78
2022/04/18 08:40:38;;;;;;;3.95;2.38;;;12.40;31.30;;;;;;5034838;28;20033;-80
2022/04/18 08:43:03;;;;;;;4.05;2.15;;;12.40;31.40;;;;;;5051485;28;20055;-78
2022/04/18 08:45:29;;;;;;;4.05;2.45;;;12.50;32.30;;;;;;5053665;28;20025;-79
2022/04/18 08:53:29;;;;;;;7.55;2.65;;;13.00;32.00;;;;;;5059879;28;20086;-78
2022/04/18 08:55:56;;;;;;;2.85;1.98;;;13.10;31.80;;;;;;5039546;28;20032;-79
2022/04/18 08:58:23;;;;;;;2.40;2.20;;;13.20;30.70;;;;;;5055438;28;20039;-79
2022/04/18 09:00:50;;;;;;;3.60;1.70;;;13.20;29.10;;;;;;5054639;28;20390;-79
2022/04/18 09:03:16;;;;;;;4.30;2.20;;;13.10;29.20;;;;;;5055210;28;20040;-79
2022/04/18 09:05:42;;;;;;;4.25;1.95;;;13.20;28.70;;;;;;5054592;28;20107;-79
2022/04/18 09:08:11;;;;;;;4.28;2.03;;;13.00;27.00;;;;;;5055712;28;20032;-79
2022/04/18 09:10:39;;;;;;;5.40;1.92;;;12.80;26.20;;;;;;5054584;28;20123;-78
2022/04/18 09:13:13;;;;;;;4.47;2.03;;;12.80;26.10;;;;;;5054499;28;20032;-80
2022/04/18 09:15:42;;;;;;;3.25;2.15;;;12.80;27.30;;;;;;5038139;28;20033;-80
2022/04/18 09:18:20;;;;;;;6.13;2.15;;;12.90;26.80;;;;;;5053903;28;20087;-79
2022/04/18 09:20:47;;;;;;;4.75;1.40;;;12.80;25.50;;;;;;5054699;28;20028;-81
2022/04/18 09:23:33;;;;;;;6.45;2.92;;;12.80;25.20;;;;;;5054371;28;20029;-78
2022/04/18 09:26:08;;;;;;;4.15;2.17;;;13.00;25.40;;;;;;5054313;28;20053;-78
2022/04/18 09:28:40;;;;;;;6.07;1.90;;;13.10;24.00;;;;;;5056084;28;20040;-79
2022/04/18 09:31:07;;;;;;;3.22;1.83;;;13.20;24.30;;;;;;5038750;28;20445;-79
2022/04/18 09:33:58;;;;;;;2.83;1.65;;;13.20;24.30;;;;;;5059435;28;20017;-78
2022/04/18 09:36:24;;;;;;;2.38;1.63;;;13.20;22.10;;;;;;5063440;28;20025;-79
2022/04/18 09:38:59;;;;;;;5.38;1.50;;;13.20;21.90;;;;;;5054137;28;20033;-79
2022/04/18 09:41:32;;;;;;;3.53;1.65;;;13.40;23.80;;;;;;5037926;28;20059;-79
2022/04/18 09:43:59;;;;;;;4.07;1.77;;;13.50;23.90;;;;;;5053590;28;20040;-79
2022/04/18 09:46:25;;;;;;;2.35;2.10;;;13.60;23.80;;;;;;5053864;28;20394;-79
2022/04/18 09:48:59;;;;;;;4.32;2.25;;;13.60;23.80;;;;;;5037520;28;20033;-79
2022/04/18 09:51:28;;;;;;;3.15;2.17;;;13.60;24.50;;;;;;5054056;28;20033;-79
2022/04/18 09:54:01;;;;;;;6.38;2.30;;;13.80;25.20;;;;;;5053682;28;20032;-83
2022/04/18 09:56:30;;;;;;;4.70;2.33;;;14.10;25.30;;;;;;5051243;28;20025;-82
2022/04/18 09:59:01;;;;;;;3.45;1.90;;;14.30;25.40;;;;;;5028447;28;20022;-83
2022/04/18 10:01:35;;;;;;;3.20;1.77;;;14.70;25.90;;;;;;5052213;28;20116;-83
2022/04/18 10:04:08;;;;;;;2.83;1.73;;;15.00;24.40;;;;;;5053886;28;20136;-82
2022/04/18 10:07:22;;;;;;;2.33;1.67;;;15.20;24.00;;;;;;5053979;28;20575;-83
2022/04/18 10:10:05;;;;;;;4.95;2.13;;;15.20;22.80;;;;;;5055381;28;20509;-82
2022/04/18 10:12:33;;;;;;;3.63;1.90;;;15.10;22.60;;;;;;5053085;28;20029;-82
2022/04/18 10:15:19;;;;;;;4.45;2.00;;;15.10;23.60;;;;;;5053696;28;20082;-82
2022/04/18 10:17:48;;;;;;;2.28;1.90;;;15.30;24.40;;;;;;5028943;28;20064;-82
2022/04/18 10:20:32;;;;;;;2.65;1.90;;;15.50;24.60;;;;;;5053842;28;20037;-82
2022/04/18 10:23:38;;;;;;;2.90;2.10;;;15.70;23.70;;;;;;5048270;28;20039;-82
2022/04/18 10:26:26;;;;;;;2.38;1.65;;;16.00;23.50;;;;;;5058671;28;20487;-82
2022/04/18 10:28:54;;;;;;;4.03;2.00;;;16.20;22.60;;;;;;5054358;28;20033;-83
2022/04/18 10:31:49;;;;;;;4.53;1.88;;;16.40;22.40;;;;;;5052714;28;20479;-82
2022/04/18 10:34:42;;;;;;;3.30;1.77;;;16.60;21.70;;;;;;5035763;28;20544;-82
2022/04/18 10:37:09;;;;;;;3.83;1.92;;;16.80;20.30;;;;;;5031033;28;20120;-82
2022/04/18 10:39:38;;;;;;;2.70;1.77;;;17.10;21.00;;;;;;5033979;28;20033;-77
2022/04/18 10:42:33;;;;;;;5.75;1.40;;;17.40;24.40;;;;;;5017178;28;20524;-78
2022/04/18 10:45:17;;;;;;;3.58;1.80;;;17.90;29.20;;;;;;5033232;28;20029;-80
2022/04/18 10:47:55;;;;;;;2.60;1.63;;;18.30;24.30;;;;;;5034392;28;20109;-75
2022/04/18 10:50:26;;;;;;;4.47;1.40;;;18.60;22.10;;;;;;5034819;28;20033;-82
2022/04/18 10:53:13;;;;;;;3.33;1.42;;;18.80;21.70;;;;;;5017633;28;20029;-80
2022/04/18 10:56:01;;;;;;;3.15;1.65;;;18.90;21.40;;;;;;5033740;28;20032;-80
2022/04/18 10:58:36;;;;;;;2.72;1.60;;;19.00;19.90;;;;;;5033421;28;20063;-87
2022/04/18 11:01:08;;;;;;;2.30;1.47;;;18.90;19.90;;;;;;5038279;28;20116;-83
2022/04/18 11:03:54;;;;;;;5.82;1.38;;;18.80;19.00;;;;;;5042360;28;20438;-81
2022/04/18 11:06:21;;;;;;;;;;;19.00;20.70;;;;;;5036839;28;20045;-79
2022/04/18 11:09:10;;;;;;;3.13;1.65;;;19.10;20.80;;;;;;5037056;28;19951;-78
2022/04/18 11:11:50;;;;;;;4.03;1.50;;;19.50;20.40;;;;;;5055957;28;20010;-79
2022/04/18 11:14:28;;;;;;;2.45;1.40;;;19.70;18.90;;;;;;5054607;28;20032;-80
2022/04/18 11:17:01;;;;;;;3.83;1.23;;;19.70;18.00;;;;;;5053500;28;20014;-80
2022/04/18 11:19:44;;;;;;;2.95;1.58;;;19.70;18.40;;;;;;5051623;28;20568;-79
2022/04/18 11:22:24;;;;;;;2.83;1.35;;;19.90;18.00;;;;;;5043387;28;20022;-80
2022/04/18 11:24:59;;;;;;;3.08;1.55;;;19.90;18.00;;;;;;5047654;28;20041;-79
2022/04/18 11:27:52;;;;;;;2.80;1.60;;;20.00;18.60;;;;;;5056949;28;20009;-80
2022/04/18 11:30:19;;;;;;;4.20;1.30;;;20.30;18.60;;;;;;5021105;28;20033;-79
2022/04/18 11:32:48;;;;;;;2.60;1.40;;;20.50;20.00;;;;;;5003564;28;20026;-80
2022/04/18 11:35:16;;;;;;;3.78;2.17;;;20.70;19.60;;;;;;5020444;28;20065;-79
2022/04/18 11:37:46;;;;;;;6.25;3.25;;;20.80;17.60;;;;;;5015977;28;20544;-79
2022/04/18 11:40:14;;;;;;;1.98;1.80;;;20.90;17.80;;;;;;4997671;28;20042;-81
2022/04/18 11:42:41;;;;;;;3.45;1.88;;;20.90;17.00;;;;;;4996279;28;20026;-82
2022/04/18 11:45:10;;;;;;;1.73;1.48;;;20.90;17.30;;;;;;4995324;28;20050;-82
2022/04/18 11:47:44;;;;;;;3.65;2.38;;;21.10;17.60;;;;;;4994774;28;20022;-81
2022/04/18 11:50:10;;;;;;;2.33;1.80;;;21.10;15.90;;;;;;4995037;28;20129;-81
2022/04/18 11:52:40;;;;;;;2.53;1.95;;;21.10;16.90;;;;;;4994447;28;20142;-80
2022/04/18 11:55:15;;;;;;;4.45;2.17;;;21.20;16.50;;;;;;5008300;28;20034;-77
2022/04/18 11:57:46;;;;;;;4.45;2.00;;;21.20;17.10;;;;;;5011240;28;20033;-80
2022/04/18 12:00:13;;;;;;;4.97;2.15;;;21.10;15.90;;;;;;4996932;28;20026;-79
2022/04/18 12:08:19;;;;;;;4.15;2.08;;;21.10;16.30;;;;;;5033570;28;20056;-84
2022/04/18 12:10:46;;;;;;;4.07;2.08;;;20.60;15.10;;;;;;5031739;28;20425;-80
2022/04/18 12:13:14;;;;;;;5.53;2.97;;;20.70;16.00;;;;;;5030971;28;20041;-79
2022/04/18 12:15:43;;;;;;;3.85;2.70;;;20.70;16.50;;;;;;5015374;28;20034;-80
2022/04/18 12:18:23;;;;;;;2.67;2.08;;;20.70;17.80;;;;;;5031261;28;20029;-82
2022/04/18 12:21:00;;;;;;;2.58;2.05;;;20.80;18.70;;;;;;5045788;28;21374;-82
2022/04/18 12:23:26;;;;;;;2.72;2.05;;;20.50;18.30;;;;;;5052452;28;20041;-80
2022/04/18 12:25:57;;;;;;;3.00;2.05;;;20.30;19.00;;;;;;5034469;28;20087;-78
2022/04/18 12:28:28;;;;;;;2.80;2.00;;;20.00;19.10;;;;;;5051940;28;20037;-82
2022/04/18 12:31:00;;;;;;;4.63;2.40;;;19.90;19.40;;;;;;5051784;28;20053;-82
2022/04/18 12:33:29;;;;;;;2.97;2.00;;;20.10;18.90;;;;;;5035853;28;20426;-81
2022/04/18 12:35:59;;;;;;;2.42;2.13;;;19.60;19.00;;;;;;5036136;28;20048;-81
2022/04/18 12:38:37;;;;;;;3.58;2.05;;;19.60;19.40;;;;;;5052026;28;20530;-81
2022/04/18 12:41:03;;;;;;;5.50;2.83;;;20.00;19.20;;;;;;5036506;28;20100;-80
2022/04/18 12:43:35;;;;;;;2.90;1.98;;;19.80;19.20;;;;;;5037016;28;20034;-80
2022/04/18 12:46:08;;;;;;;4.25;2.13;;;19.90;19.40;;;;;;5036769;28;20029;-80
2022/04/18 12:48:38;;;;;;;4.15;2.20;;;20.20;19.10;;;;;;5036845;28;20079;-81
2022/04/18 12:51:06;;;;;;;4.53;2.47;;;20.30;18.80;;;;;;5035236;28;20036;-81
2022/04/18 12:53:44;;;;;;;2.50;2.13;;;20.50;18.80;;;;;;5044164;28;20029;-80
2022/04/18 12:56:20;;;;;;;4.72;2.53;;;21.10;19.10;;;;;;5047098;28;20048;-81
2022/04/18 12:58:49;;;;;;;3.22;2.25;;;21.50;18.20;;;;;;5047749;28;20088;-81
2022/04/18 13:01:26;;;;;;;3.80;2.65;;;21.50;17.80;;;;;;5038528;28;20026;-81
2022/04/18 13:03:56;;;;;;;6.95;3.17;;;21.10;18.30;;;;;;5053619;28;20084;-81
2022/04/18 13:06:29;;;;;;;4.78;2.35;;;21.20;18.50;;;;;;5036550;28;20049;-80
2022/04/18 13:09:16;;;;;;;3.08;2.78;;;21.10;18.40;;;;;;5054092;28;20025;-79
2022/04/18 13:11:46;;;;;;;4.88;3.05;;;21.20;18.70;;;;;;5036232;28;20022;-80
2022/04/18 13:14:14;;;;;;;3.92;3.10;;;21.20;18.70;;;;;;5052507;28;20033;-80
2022/04/18 13:16:42;;;;;;;4.88;2.97;;;20.70;18.40;;;;;;5052449;28;20067;-80
2022/04/18 13:19:12;;;;;;;5.13;2.50;;;20.70;19.30;;;;;;5036168;28;20072;-80
2022/04/18 13:21:40;;;;;;;5.68;2.70;;;20.60;19.00;;;;;;5052196;28;20029;-81
2022/04/18 13:24:08;;;;;;;3.20;2.08;;;20.70;19.70;;;;;;5035485;28;20399;-81